Time;durP1;ratioP1;P1;durP2;ratioP2;P2;SDS_P1;SDS_P2;PMS_P1;PMS_P2;Temp;Humidity;BMP_temperature;BMP_pressure;BME280_temperature;BME280_humidity;BME280_pressure;Samples;Min_cycle;Max_cycle;Signal;HPM_P1;HPM_P2
2021/09/06 00:01:09;;;;;;;23.60;9.80;;;;;;;10.26;59.52;100186.33;26946;1218;3026134;-67
2021/09/06 00:03:38;;;;;;;28.50;9.30;;;;;;;10.21;60.10;100187.31;26984;1218;3051978;-61
2021/09/06 00:06:07;;;;;;;23.80;8.70;;;;;;;10.09;61.02;100188.91;26964;1218;3026299;-62
2021/09/06 00:08:39;;;;;;;26.10;10.40;;;;;;;10.07;61.20;100188.64;26941;1220;3052022;-65
2021/09/06 00:11:10;;;;;;;22.10;8.40;;;;;;;10.00;61.17;100191.05;26933;1218;3026760;-63
2021/09/06 00:13:59;;;;;;;19.70;7.60;;;;;;;9.95;61.48;100187.48;26904;1220;3051373;-63
2021/09/06 00:16:31;;;;;;;22.00;7.00;;;;;;;9.90;61.60;100191.34;26912;1227;3026051;-65
2021/09/06 00:19:01;;;;;;;21.60;7.40;;;;;;;9.86;61.67;100193.63;26916;1227;3028792;-64
2021/09/06 00:21:31;;;;;;;25.60;6.30;;;;;;;9.81;61.72;100192.33;26908;1220;3026460;-63
2021/09/06 00:24:04;;;;;;;17.10;6.20;;;;;;;9.73;61.57;100189.34;26899;1221;3069767;-63
2021/09/06 00:26:33;;;;;;;22.90;7.20;;;;;;;9.72;61.58;100192.52;26899;1220;3026698;-63
2021/09/06 00:29:01;;;;;;;20.50;7.30;;;;;;;9.65;62.15;100192.85;26916;1220;3025946;-62
2021/09/06 00:31:31;;;;;;;21.50;7.10;;;;;;;9.66;61.96;100190.34;26886;1226;3069922;-65
2021/09/06 00:34:09;;;;;;;21.80;7.10;;;;;;;9.60;62.19;100195.16;26908;1220;3051342;-63
2021/09/06 00:36:38;;;;;;;25.30;7.90;;;;;;;9.53;62.54;100196.88;26891;1220;3028881;-64
2021/09/06 00:39:12;;;;;;;23.20;8.80;;;;;;;9.54;62.31;100195.60;26904;1227;3070501;-64
2021/09/06 00:41:43;;;;;;;25.90;9.40;;;;;;;9.55;62.28;100194.34;26915;1220;3026844;-65
2021/09/06 00:44:12;;;;;;;29.40;10.80;;;;;;;9.56;62.27;100197.26;26940;1220;3026913;-68
2021/09/06 00:46:45;;;;;;;36.40;15.20;;;;;;;9.50;62.06;100194.60;26921;1220;3028673;-63
2021/09/06 00:49:18;;;;;;;37.10;11.90;;;;;;;9.45;61.92;100191.98;26942;1220;3048099;-65
2021/09/06 00:51:48;;;;;;;15.70;6.70;;;;;;;9.41;62.10;100193.05;26911;1221;3026503;-65
2021/09/06 00:54:17;;;;;;;16.10;7.00;;;;;;;9.39;62.33;100198.70;26929;1221;3026731;-63
2021/09/06 00:56:46;;;;;;;21.70;7.30;;;;;;;9.33;62.43;100200.23;26916;1220;3047801;-65
2021/09/06 00:59:22;;;;;;;16.80;6.60;;;;;;;9.31;62.89;100197.34;26937;1221;3054181;-64
2021/09/06 01:01:52;;;;;;;13.80;5.80;;;;;;;9.24;63.17;100202.71;26911;1220;3026089;-65
2021/09/06 01:04:21;;;;;;;24.20;9.70;;;;;;;9.20;63.26;100204.97;26921;1220;3026035;-68
2021/09/06 01:07:49;;;;;;;24.10;9.70;;;;;;;9.17;63.69;100199.66;26836;1223;3049711;-64
2021/09/06 01:10:43;;;;;;;24.50;10.80;;;;;;;9.11;63.84;100200.66;26832;1231;3055126;-67
2021/09/06 01:13:39;;;;;;;21.40;9.60;;;;;;;9.02;64.40;100199.78;26812;1227;3052650;-65
2021/09/06 01:16:28;;;;;;;24.70;9.80;;;;;;;8.95;64.81;100198.70;26813;1226;3071144;-64
2021/09/06 01:19:01;;;;;;;21.00;7.90;;;;;;;8.88;65.20;100204.59;26851;1224;3026523;-67
2021/09/06 01:21:32;;;;;;;19.60;7.00;;;;;;;8.79;65.54;100204.09;26870;1230;3025890;-64
2021/09/06 01:24:27;;;;;;;21.40;8.60;;;;;;;8.77;65.62;100204.50;26840;1231;3056199;-66
2021/09/06 01:26:56;;;;;;;16.60;7.10;;;;;;;8.72;66.00;100199.10;26842;1225;3026340;-68
2021/09/06 01:29:27;;;;;;;16.70;6.40;;;;;;;8.71;65.67;100196.35;26881;1224;3025847;-67
2021/09/06 01:31:56;;;;;;;27.90;9.30;;;;;;;8.73;65.71;100199.94;26811;1228;3027942;-65
2021/09/06 01:34:26;;;;;;;21.50;6.50;;;;;;;8.73;66.08;100202.04;26825;1226;3055604;-67
2021/09/06 01:36:59;;;;;;;21.30;7.10;;;;;;;9.35;64.34;100203.98;26813;1224;3027110;-67
2021/09/06 01:39:28;;;;;;;21.20;7.40;;;;;;;9.79;62.69;100200.08;26954;1220;3025958;-67
2021/09/06 01:42:01;;;;;;;24.10;9.90;;;;;;;9.75;62.77;100197.65;26937;1221;3026959;-70
2021/09/06 01:44:30;;;;;;;26.10;10.00;;;;;;;9.57;63.14;100200.20;26892;1224;3026770;-65
2021/09/06 01:46:59;;;;;;;24.20;10.20;;;;;;;9.42;63.67;100198.62;26906;1220;3026488;-68
2021/09/06 01:49:28;;;;;;;23.70;9.20;;;;;;;9.22;64.11;100201.72;26887;1223;3026230;-68
2021/09/06 01:51:57;;;;;;;24.50;8.90;;;;;;;9.05;64.70;100205.59;26899;1221;3069664;-66
2021/09/06 01:54:26;;;;;;;19.60;7.30;;;;;;;8.89;65.27;100206.96;26912;1227;3026191;-66
2021/09/06 01:56:56;;;;;;;22.00;8.50;;;;;;;8.75;65.85;100211.39;26926;1219;3026186;-68
2021/09/06 01:59:25;;;;;;;25.70;8.90;;;;;;;8.65;66.42;100211.96;26885;1225;3026379;-66
2021/09/06 02:01:54;;;;;;;24.00;9.70;;;;;;;8.57;66.91;100214.20;26910;1225;3027299;-68
2021/09/06 02:04:24;;;;;;;33.90;11.80;;;;;;;8.46;67.18;100215.34;26903;1221;3053354;-67
2021/09/06 02:06:55;;;;;;;22.20;9.80;;;;;;;8.38;67.42;100217.73;26915;1222;3026391;-65
2021/09/06 02:09:24;;;;;;;34.40;13.00;;;;;;;8.33;67.46;100223.87;26913;1225;3026759;-63
2021/09/06 02:12:07;;;;;;;27.30;9.70;;;;;;;8.28;67.74;100229.48;26900;1221;3054869;-64
2021/09/06 02:14:49;;;;;;;22.30;8.30;;;;;;;8.98;65.48;100229.83;26905;1225;3052603;-65
2021/09/06 02:17:20;;;;;;;21.40;8.30;;;;;;;9.41;63.62;100226.12;26933;1222;3026677;-65
2021/09/06 02:19:49;;;;;;;19.90;6.80;;;;;;;9.26;63.79;100231.65;26901;1224;3026496;-66
2021/09/06 02:22:18;;;;;;;20.80;6.00;;;;;;;9.05;64.31;100226.73;26922;1225;3026052;-64
2021/09/06 02:24:56;;;;;;;13.40;4.70;;;;;;;8.84;65.12;100230.06;26925;1224;3056321;-68
2021/09/06 02:27:29;;;;;;;16.30;4.50;;;;;;;8.67;65.36;100229.17;26926;1226;3025810;-64
2021/09/06 02:30:00;;;;;;;18.10;5.20;;;;;;;8.56;65.88;100229.62;26912;1225;3027281;-64
2021/09/06 02:32:31;;;;;;;16.40;3.50;;;;;;;8.42;66.37;100239.58;26976;1221;3026605;-62
2021/09/06 02:35:18;;;;;;;15.20;4.80;;;;;;;8.34;66.65;100242.48;26934;1228;3067306;-64
2021/09/06 02:37:48;;;;;;;29.60;11.20;;;;;;;8.29;66.80;100248.62;26918;1225;3026564;-63
2021/09/06 02:40:18;;;;;;;20.30;9.10;;;;;;;8.24;66.73;100247.08;26944;1225;3050979;-65
2021/09/06 02:42:50;;;;;;;25.90;11.00;;;;;;;8.16;66.88;100249.81;26948;1226;3026065;-64
2021/09/06 02:45:19;;;;;;;29.10;10.30;;;;;;;8.15;67.05;100251.96;26941;1225;3026637;-65
2021/09/06 02:47:52;;;;;;;25.90;11.10;;;;;;;8.18;67.56;100252.73;26922;1224;3053101;-66
2021/09/06 02:50:21;;;;;;;21.30;9.20;;;;;;;8.71;65.78;100247.54;26913;1225;3025925;-65
2021/09/06 02:52:53;;;;;;;28.80;9.50;;;;;;;9.15;64.28;100246.61;26947;1221;3052658;-65
2021/09/06 02:55:23;;;;;;;19.30;7.60;;;;;;;9.07;64.58;100250.98;26908;1225;3025839;-72
2021/09/06 02:57:52;;;;;;;17.80;5.40;;;;;;;9.00;64.58;100252.30;26886;1221;3027182;-66
2021/09/06 03:00:22;;;;;;;18.60;6.00;;;;;;;8.99;64.23;100251.13;26888;1225;3027815;-67
2021/09/06 03:02:52;;;;;;;20.00;7.50;;;;;;;8.92;64.37;100254.04;26903;1220;3026266;-64
2021/09/06 03:05:21;;;;;;;17.50;6.10;;;;;;;8.75;64.94;100251.05;26926;1225;3026309;-64
2021/09/06 03:07:53;;;;;;;19.70;7.00;;;;;;;8.72;64.88;100255.84;26919;1221;3025672;-65
2021/09/06 03:10:33;;;;;;;21.10;7.50;;;;;;;8.59;65.50;100261.83;26894;1226;3048951;-65
2021/09/06 03:13:04;;;;;;;20.50;7.90;;;;;;;8.52;65.78;100266.27;26971;1224;3026170;-65
2021/09/06 03:15:33;;;;;;;17.80;7.00;;;;;;;8.43;65.99;100272.55;26965;1223;3025893;-67
2021/09/06 03:18:03;;;;;;;19.20;5.90;;;;;;;8.43;66.02;100275.86;26945;1222;3048865;-67
2021/09/06 03:20:52;;;;;;;27.10;8.80;;;;;;;8.41;66.41;100280.98;27020;1220;3052343;-70
2021/09/06 03:23:21;;;;;;;22.60;7.70;;;;;;;8.42;66.34;100283.05;26993;1222;3026284;-67
2021/09/06 03:25:55;;;;;;;23.10;7.20;;;;;;;8.42;66.39;100284.46;26934;1226;3052530;-62
2021/09/06 03:28:24;;;;;;;26.90;7.60;;;;;;;8.37;66.50;100285.67;26911;1225;3027803;-68
2021/09/06 03:30:53;;;;;;;14.20;4.90;;;;;;;8.40;66.44;100288.02;26986;1222;3054967;-65
2021/09/06 03:33:23;;;;;;;15.40;5.20;;;;;;;8.95;65.43;100285.17;26910;1225;3028772;-65
2021/09/06 03:35:54;;;;;;;18.10;5.80;;;;;;;9.45;63.64;100285.05;27008;1222;3026302;-63
2021/09/06 03:38:24;;;;;;;19.80;5.90;;;;;;;9.46;63.24;100287.23;27001;1222;3026122;-66
2021/09/06 03:40:53;;;;;;;17.10;4.50;;;;;;;9.32;63.49;100290.66;26939;1222;3026261;-65
2021/09/06 03:43:23;;;;;;;13.90;4.50;;;;;;;9.18;63.91;100294.20;26977;1218;3051609;-65
2021/09/06 03:45:52;;;;;;;14.30;5.50;;;;;;;9.02;64.51;100295.90;26991;1221;3026401;-65
2021/09/06 03:48:21;;;;;;;13.60;4.80;;;;;;;8.94;64.72;100299.22;27028;1220;3048372;-65
2021/09/06 03:50:51;;;;;;;12.50;4.80;;;;;;;8.94;64.75;100302.00;26964;1225;3026730;-65
2021/09/06 03:53:20;;;;;;;15.80;5.40;;;;;;;8.87;64.93;100303.33;27042;1222;3025860;-68
2021/09/06 03:55:50;;;;;;;11.50;4.50;;;;;;;8.85;65.42;100307.44;27027;1218;3026372;-69
2021/09/06 03:58:19;;;;;;;15.00;5.10;;;;;;;8.92;64.90;100308.52;26992;1219;3055210;-64
2021/09/06 04:00:48;;;;;;;14.10;4.70;;;;;;;8.91;65.05;100312.05;26963;1222;3026046;-68
2021/09/06 04:03:19;;;;;;;11.90;4.40;;;;;;;8.91;65.35;100313.13;27010;1219;3048611;-66
2021/09/06 04:05:48;;;;;;;15.30;5.60;;;;;;;8.88;65.48;100320.94;26985;1218;3026677;-65
2021/09/06 04:08:18;;;;;;;13.00;5.70;;;;;;;8.94;65.23;100316.88;26999;1218;3026140;-71
2021/09/06 04:10:48;;;;;;;18.60;5.60;;;;;;;8.97;65.33;100316.56;26929;1225;3026266;-66
2021/09/06 04:13:20;;;;;;;14.70;6.40;;;;;;;8.99;65.13;100317.67;26928;1221;3026244;-66
2021/09/06 04:15:57;;;;;;;15.90;6.00;;;;;;;9.00;65.70;100318.17;26910;1221;3053452;-65
2021/09/06 04:18:40;;;;;;;13.70;4.70;;;;;;;9.13;65.47;100319.75;26910;1227;3053811;-63
2021/09/06 04:21:09;;;;;;;10.20;4.50;;;;;;;9.81;63.58;100315.31;26928;1224;3025966;-67
2021/09/06 04:23:39;;;;;;;14.70;4.30;;;;;;;10.49;61.17;100319.42;26965;1224;3054006;-64
2021/09/06 04:26:09;;;;;;;8.20;3.70;;;;;;;10.71;59.88;100319.29;26948;1224;3026175;-66
2021/09/06 04:28:43;;;;;;;12.50;4.30;;;;;;;10.62;59.99;100319.35;26954;1225;3056657;-66
2021/09/06 04:31:13;;;;;;;13.20;4.40;;;;;;;10.52;60.29;100322.83;26923;1222;3026220;-66
2021/09/06 04:33:43;;;;;;;11.50;4.50;;;;;;;10.40;60.84;100323.86;26931;1225;3026396;-68
2021/09/06 04:36:12;;;;;;;16.10;4.70;;;;;;;10.31;61.10;100320.41;26940;1225;3029597;-67
2021/09/06 04:38:45;;;;;;;11.90;4.80;;;;;;;10.27;61.54;100318.88;26933;1224;3048329;-64
2021/09/06 04:41:14;;;;;;;15.20;5.20;;;;;;;10.31;61.68;100320.59;26896;1225;3026074;-67
2021/09/06 04:43:43;;;;;;;12.30;4.60;;;;;;;10.35;61.38;100318.67;26948;1221;3055047;-70
2021/09/06 04:46:13;;;;;;;11.30;4.60;;;;;;;10.33;61.33;100319.85;26922;1224;3026931;-65
2021/09/06 04:48:42;;;;;;;14.70;4.60;;;;;;;10.33;61.53;100319.13;26937;1225;3026270;-66
2021/09/06 04:51:12;;;;;;;11.70;4.20;;;;;;;10.32;61.50;100319.70;26926;1225;3055840;-65
2021/09/06 04:53:42;;;;;;;12.80;4.60;;;;;;;10.27;61.71;100321.30;26939;1222;3026045;-69
2021/09/06 04:56:13;;;;;;;10.20;4.00;;;;;;;10.33;61.62;100321.89;26944;1224;3026032;-64
2021/09/06 04:58:43;;;;;;;8.30;3.60;;;;;;;10.31;61.65;100323.23;26973;1225;3026001;-69
2021/09/06 05:01:12;;;;;;;7.80;3.10;;;;;;;10.36;61.60;100324.94;26934;1225;3026470;-65
2021/09/06 05:03:41;;;;;;;7.60;2.90;;;;;;;10.44;61.11;100322.11;26920;1226;3054617;-65
2021/09/06 05:06:12;;;;;;;8.00;3.00;;;;;;;10.52;61.12;100325.63;26999;1224;3026829;-67
2021/09/06 05:08:41;;;;;;;8.10;2.90;;;;;;;10.49;61.04;100325.05;26936;1224;3026506;-64
2021/09/06 05:11:26;;;;;;;13.80;2.90;;;;;;;10.47;61.21;100324.98;26884;1225;3051105;-68
2021/09/06 05:13:55;;;;;;;8.50;2.70;;;;;;;10.50;61.51;100330.30;26946;1221;3026311;-69
2021/09/06 05:16:25;;;;;;;13.20;3.20;;;;;;;10.60;61.24;100338.92;26946;1222;3027805;-69
2021/09/06 05:18:54;;;;;;;6.30;2.70;;;;;;;10.60;61.30;100336.64;26933;1221;3050290;-66
2021/09/06 05:21:24;;;;;;;7.40;2.30;;;;;;;10.77;60.70;100336.03;26921;1228;3025835;-67
2021/09/06 05:23:54;;;;;;;6.50;2.30;;;;;;;10.80;60.33;100340.05;26932;1228;3026913;-66
2021/09/06 05:26:24;;;;;;;8.60;2.40;;;;;;;10.87;60.27;100343.05;26965;1224;3026883;-64
2021/09/06 05:28:54;;;;;;;4.90;2.60;;;;;;;10.98;60.19;100340.80;27001;1221;3051722;-67
2021/09/06 05:31:28;;;;;;;3.60;1.90;;;;;;;11.06;59.52;100339.52;26975;1222;3054705;-69
2021/09/06 05:33:58;;;;;;;10.90;1.80;;;;;;;11.07;59.27;100347.54;26993;1222;3026279;-69
2021/09/06 05:36:27;;;;;;;6.00;1.60;;;;;;;11.13;58.94;100343.07;26954;1224;3025799;-67
2021/09/06 05:38:59;;;;;;;5.30;1.50;;;;;;;11.12;59.07;100346.43;26940;1219;3026330;-72
2021/09/06 05:41:28;;;;;;;7.30;2.50;;;;;;;11.21;58.86;100350.02;27044;1222;3027077;-69
2021/09/06 05:43:59;;;;;;;5.20;1.90;;;;;;;11.30;58.69;100349.75;27072;1222;3051383;-69
2021/09/06 05:46:31;;;;;;;9.30;2.00;;;;;;;11.46;58.36;100352.67;27017;1226;3025774;-69
2021/09/06 05:49:00;;;;;;;7.10;1.80;;;;;;;11.50;58.33;100354.21;27008;1222;3026838;-68
2021/09/06 05:51:30;;;;;;;5.90;2.30;;;;;;;11.65;58.18;100354.88;26982;1220;3025686;-70
2021/09/06 05:54:14;;;;;;;6.10;2.30;;;;;;;11.68;57.86;100352.92;26964;1221;3048374;-66
2021/09/06 05:56:43;;;;;;;7.10;1.90;;;;;;;11.75;57.95;100356.27;26922;1229;3026353;-67
2021/09/06 05:59:12;;;;;;;8.00;1.80;;;;;;;11.82;57.08;100362.78;27039;1222;3071185;-66
2021/09/06 06:01:42;;;;;;;7.20;1.60;;;;;;;11.85;57.08;100365.41;27093;1220;3025619;-68
2021/09/06 06:04:11;;;;;;;7.20;1.60;;;;;;;11.97;56.66;100362.92;27020;1226;3027060;-68
2021/09/06 06:06:43;;;;;;;5.70;1.40;;;;;;;11.96;56.09;100366.33;27089;1222;3026077;-68
2021/09/06 06:09:12;;;;;;;6.40;1.60;;;;;;;12.03;55.61;100368.05;26994;1228;3027963;-65
2021/09/06 06:12:02;;;;;;;2.60;1.00;;;;;;;12.06;55.11;100369.63;26985;1226;3052070;-70
2021/09/06 06:14:37;;;;;;;2.40;0.90;;;;;;;12.11;54.52;100368.69;27035;1222;3055100;-69
2021/09/06 06:17:06;;;;;;;4.00;1.40;;;;;;;12.15;54.36;100371.63;26995;1221;3026945;-63
2021/09/06 06:19:40;;;;;;;5.10;1.00;;;;;;;12.28;54.12;100374.08;27019;1218;3052689;-67
2021/09/06 06:22:26;;;;;;;6.10;1.30;;;;;;;12.35;53.60;100374.60;27010;1225;3052299;-67
2021/09/06 06:25:04;;;;;;;1.90;1.00;;;;;;;12.49;53.29;100376.17;26977;1218;3054369;-65
2021/09/06 06:27:36;;;;;;;3.90;1.30;;;;;;;12.50;53.30;100378.59;27090;1222;3025949;-67
2021/09/06 06:30:10;;;;;;;3.10;1.10;;;;;;;12.48;52.91;100379.20;26955;1222;3025925;-67
2021/09/06 06:32:40;;;;;;;10.30;1.40;;;;;;;12.39;52.95;100384.60;27284;1218;3026958;-66
2021/09/06 06:35:32;;;;;;;7.50;1.10;;;;;;;12.29;53.44;100387.59;26994;1227;3054942;-65
2021/09/06 06:38:01;;;;;;;4.40;1.40;;;;;;;12.37;53.17;100389.09;26920;1226;3027993;-66
2021/09/06 06:40:31;;;;;;;5.40;1.40;;;;;;;12.47;53.14;100390.31;27011;1227;3052937;-66
2021/09/06 06:43:02;;;;;;;5.90;1.20;;;;;;;12.62;53.06;100388.14;27034;1219;3026302;-68
2021/09/06 06:45:32;;;;;;;2.90;1.00;;;;;;;12.57;52.26;100390.29;27032;1224;3026456;-70
2021/09/06 06:48:01;;;;;;;2.80;1.30;;;;;;;12.42;52.46;100392.15;27006;1224;3025996;-68
2021/09/06 06:50:32;;;;;;;2.60;1.10;;;;;;;12.34;52.54;100393.44;27069;1221;3026701;-68
2021/09/06 06:53:01;;;;;;;2.00;1.00;;;;;;;12.34;52.36;100390.67;26973;1220;3027693;-68
2021/09/06 06:55:30;;;;;;;3.60;1.40;;;;;;;12.38;52.71;100393.98;27037;1219;3048441;-66
2021/09/06 06:58:01;;;;;;;9.10;1.20;;;;;;;12.63;52.63;100391.58;27061;1222;3026286;-67
2021/09/06 07:00:30;;;;;;;5.00;1.40;;;;;;;12.86;52.20;100391.69;27058;1219;3027014;-66
2021/09/06 07:03:00;;;;;;;5.80;2.50;;;;;;;13.04;51.75;100395.13;26957;1228;3049175;-65
2021/09/06 07:05:29;;;;;;;16.70;5.90;;;;;;;13.01;51.15;100395.63;27036;1224;3028237;-69
2021/09/06 07:07:58;;;;;;;6.90;3.10;;;;;;;12.97;51.66;100398.52;26912;1225;3054865;-67
2021/09/06 07:10:47;;;;;;;8.90;4.40;;;;;;;12.97;51.07;100396.72;27011;1223;3049573;-68
2021/09/06 07:13:17;;;;;;;9.80;3.30;;;;;;;13.17;51.16;100398.80;27073;1219;3026754;-69
2021/09/06 07:15:51;;;;;;;9.50;2.10;;;;;;;13.33;50.88;100398.97;26962;1220;3053088;-67
2021/09/06 07:18:20;;;;;;;2.80;1.50;;;;;;;13.16;49.93;100401.09;26978;1224;3026090;-66
2021/09/06 07:20:50;;;;;;;5.60;1.50;;;;;;;13.17;50.27;100402.44;26920;1222;3054517;-67
2021/09/06 07:23:19;;;;;;;7.20;1.40;;;;;;;13.26;50.37;100399.85;26957;1224;3026634;-67
2021/09/06 07:25:48;;;;;;;5.50;1.60;;;;;;;13.49;50.17;100394.86;27029;1219;3051261;-67
2021/09/06 07:28:18;;;;;;;14.60;4.30;;;;;;;13.42;49.61;100393.17;27098;1218;3027523;-69
2021/09/06 07:30:47;;;;;;;11.30;4.10;;;;;;;13.52;49.12;100397.48;26995;1225;3055051;-68
2021/09/06 07:33:16;;;;;;;16.50;4.70;;;;;;;13.69;48.95;100396.55;27034;1222;3025909;-65
2021/09/06 07:35:45;;;;;;;7.90;2.40;;;;;;;13.90;48.61;100397.08;26962;1220;3026255;-66
2021/09/06 07:38:14;;;;;;;3.10;1.60;;;;;;;14.03;47.74;100398.90;27026;1221;3055414;-69
2021/09/06 07:40:43;;;;;;;6.50;1.50;;;;;;;14.04;47.04;100400.11;26941;1221;3026059;-66
2021/09/06 07:43:12;;;;;;;4.60;1.20;;;;;;;14.13;47.13;100395.30;26944;1219;3051693;-66
2021/09/06 07:45:43;;;;;;;7.90;1.60;;;;;;;14.34;47.24;100399.51;26949;1219;3026083;-69
2021/09/06 07:48:14;;;;;;;11.00;2.00;;;;;;;14.40;46.91;100397.71;26993;1219;3051045;-65
2021/09/06 07:50:48;;;;;;;4.20;1.50;;;;;;;14.55;46.64;100401.04;26998;1220;3053637;-70
2021/09/06 07:53:17;;;;;;;2.80;1.60;;;;;;;14.42;46.63;100399.58;26938;1220;3025991;-66
2021/09/06 07:55:47;;;;;;;6.60;1.70;;;;;;;14.25;47.14;100397.23;26977;1222;3027197;-66
2021/09/06 07:58:17;;;;;;;5.10;1.60;;;;;;;14.27;47.05;100398.20;26987;1218;3027647;-68
2021/09/06 08:00:46;;;;;;;3.40;1.40;;;;;;;14.27;47.09;100392.55;26935;1221;3027838;-66
2021/09/06 08:03:16;;;;;;;6.00;1.80;;;;;;;14.39;46.98;100390.22;26993;1219;3026847;-68
2021/09/06 08:05:46;;;;;;;4.40;1.30;;;;;;;14.64;46.71;100394.01;27022;1219;3026745;-70
2021/09/06 08:08:16;;;;;;;3.80;1.00;;;;;;;14.75;46.05;100386.96;27016;1224;3026974;-69
2021/09/06 08:10:46;;;;;;;6.20;1.50;;;;;;;14.86;45.32;100390.16;27027;1219;3025963;-67
2021/09/06 08:13:20;;;;;;;4.50;1.40;;;;;;;15.01;45.31;100387.77;26986;1219;3058334;-65
2021/09/06 08:15:49;;;;;;;3.60;1.20;;;;;;;14.90;45.27;100396.08;26929;1219;3025785;-67
2021/09/06 08:18:18;;;;;;;8.90;1.10;;;;;;;14.88;45.56;100386.84;26994;1221;3050730;-65
2021/09/06 08:20:50;;;;;;;3.00;1.20;;;;;;;14.85;45.42;100388.10;26983;1220;3026572;-66
2021/09/06 08:23:20;;;;;;;4.40;1.20;;;;;;;14.95;45.52;100387.83;26997;1218;3025801;-65
2021/09/06 08:25:50;;;;;;;8.30;1.80;;;;;;;14.80;45.67;100384.33;27023;1222;3025803;-66
2021/09/06 08:28:19;;;;;;;4.70;1.30;;;;;;;14.86;45.69;100385.74;26946;1225;3026689;-70
2021/09/06 08:30:48;;;;;;;4.50;1.50;;;;;;;14.79;45.44;100380.86;27055;1226;3048746;-65
2021/09/06 08:33:17;;;;;;;4.70;1.90;;;;;;;15.03;44.78;100377.94;26912;1221;3025984;-68
2021/09/06 08:35:47;;;;;;;3.20;1.40;;;;;;;15.07;44.60;100375.23;27016;1220;3054097;-68
2021/09/06 08:38:18;;;;;;;8.30;1.80;;;;;;;15.26;44.33;100379.11;26922;1220;3027079;-64
2021/09/06 08:40:48;;;;;;;3.90;1.70;;;;;;;15.43;43.74;100368.08;26977;1224;3026514;-67
2021/09/06 08:43:16;;;;;;;3.20;1.10;;;;;;;15.60;43.04;100367.45;26932;1220;3026561;-65
2021/09/06 08:45:46;;;;;;;1.80;0.70;;;;;;;15.51;42.76;100367.05;27063;1220;3051212;-67
2021/09/06 08:48:15;;;;;;;2.90;1.00;;;;;;;15.32;41.88;100362.80;27023;1220;3025651;-66
2021/09/06 08:50:44;;;;;;;3.60;0.90;;;;;;;15.64;41.72;100360.70;26948;1224;3055283;-66
2021/09/06 08:53:13;;;;;;;2.40;1.10;;;;;;;15.89;40.84;100360.77;26939;1220;3025798;-66
2021/09/06 08:55:43;;;;;;;2.90;1.30;;;;;;;15.91;41.26;100357.52;26998;1218;3027081;-68
2021/09/06 08:58:14;;;;;;;11.80;1.50;;;;;;;16.27;40.91;100359.09;26932;1224;3028299;-68
2021/09/06 09:00:46;;;;;;;4.90;1.30;;;;;;;16.56;40.46;100354.36;27025;1218;3047602;-66
2021/09/06 09:03:34;;;;;;;5.60;0.90;;;;;;;16.76;40.03;100351.19;27001;1222;3055401;-63
2021/09/06 09:06:38;;;;;;;3.30;0.70;;;;;;;16.44;39.56;100354.13;27026;1220;3051501;-68
2021/09/06 09:09:46;;;;;;;4.00;0.90;;;;;;;15.69;40.74;100355.23;26854;1227;3069465;-66
2021/09/06 09:12:30;;;;;;;3.00;0.70;;;;;;;15.79;40.88;100348.90;26897;1223;3048617;-63
2021/09/06 09:15:11;;;;;;;3.30;0.90;;;;;;;16.06;40.86;100346.55;26849;1229;3052137;-67
2021/09/06 09:18:00;;;;;;;1.80;0.80;;;;;;;16.32;39.60;100350.77;26840;1230;3055064;-64
2021/09/06 09:20:40;;;;;;;1.00;0.50;;;;;;;16.31;38.81;100348.68;26792;1228;3055839;-63
2021/09/06 09:23:39;;;;;;;5.60;0.70;;;;;;;15.98;39.24;100351.87;26787;1227;3049095;-67
2021/09/06 09:26:15;;;;;;;1.70;0.60;;;;;;;15.59;39.46;100357.52;26877;1227;3052348;-66
2021/09/06 09:29:08;;;;;;;1.20;0.60;;;;;;;15.40;39.70;100347.96;26968;1223;3051067;-65
2021/09/06 09:31:56;;;;;;;1.00;0.60;;;;;;;15.22;39.74;100345.51;27335;1223;3068882;-64
2021/09/06 09:34:55;;;;;;;1.90;1.00;;;;;;;15.77;38.96;100338.80;26811;1228;3048376;-62
2021/09/06 09:37:31;;;;;;;4.30;1.10;;;;;;;16.30;38.15;100339.95;26850;1226;3051613;-64
2021/09/06 09:40:14;;;;;;;2.00;1.00;;;;;;;16.51;38.35;100340.07;26971;1228;3052335;-66
2021/09/06 09:42:48;;;;;;;2.60;1.30;;;;;;;16.44;38.46;100345.30;27013;1221;3026964;-67
2021/09/06 09:45:23;;;;;;;1.90;1.00;;;;;;;16.29;38.54;100343.34;26925;1220;3049183;-65
2021/09/06 09:48:22;;;;;;;2.80;1.10;;;;;;;15.96;38.86;100339.83;26986;1223;3055176;-67
2021/09/06 09:50:51;;;;;;;1.30;0.60;;;;;;;15.99;38.93;100345.47;26995;1221;3025980;-62
2021/09/06 09:53:24;;;;;;;1.20;0.70;;;;;;;15.72;38.45;100341.62;26989;1220;3027927;-68
2021/09/06 09:55:54;;;;;;;2.70;0.90;;;;;;;15.79;38.45;100335.14;26956;1219;3026796;-62
2021/09/06 09:58:23;;;;;;;3.80;1.20;;;;;;;16.16;38.07;100338.42;26903;1219;3028737;-63
2021/09/06 10:00:53;;;;;;;1.50;0.80;;;;;;;16.47;37.73;100345.06;26952;1219;3026648;-66
2021/09/06 10:03:22;;;;;;;4.40;0.60;;;;;;;16.45;37.03;100344.33;26966;1219;3027747;-65
2021/09/06 10:05:51;;;;;;;1.60;0.70;;;;;;;16.18;36.42;100346.08;26955;1220;3054156;-66
2021/09/06 10:08:20;;;;;;;1.30;0.80;;;;;;;15.84;36.01;100349.30;26932;1225;3026850;-65
2021/09/06 10:10:55;;;;;;;1.40;0.70;;;;;;;16.11;36.04;100341.63;27003;1222;3058374;-63
2021/09/06 10:13:26;;;;;;;1.30;0.60;;;;;;;16.43;35.42;100345.05;27035;1219;3026267;-66
2021/09/06 10:16:01;;;;;;;2.40;0.90;;;;;;;16.59;35.72;100335.06;26947;1226;3025938;-67
2021/09/06 10:18:44;;;;;;;4.00;1.40;;;;;;;16.77;35.22;100335.52;26951;1223;3053584;-66
2021/09/06 10:21:24;;;;;;;4.50;1.60;;;;;;;16.67;36.15;100340.50;26954;1219;3071120;-67
2021/09/06 10:23:54;;;;;;;2.10;1.00;;;;;;;16.83;36.22;100336.13;26995;1219;3026265;-66
2021/09/06 10:26:33;;;;;;;1.70;0.90;;;;;;;16.42;36.11;100339.77;26941;1220;3025899;-67
2021/09/06 10:29:22;;;;;;;8.30;0.80;;;;;;;16.48;36.43;100343.29;27045;1220;3051714;-65
2021/09/06 10:31:58;;;;;;;7.20;1.20;;;;;;;16.62;35.77;100335.72;27062;1219;3055989;-66
2021/09/06 10:34:31;;;;;;;3.60;1.10;;;;;;;16.95;35.49;100334.92;27006;1219;3050523;-63
2021/09/06 10:37:05;;;;;;;2.10;0.70;;;;;;;17.17;35.45;100338.30;27050;1220;3027112;-65
2021/09/06 10:39:44;;;;;;;3.40;0.90;;;;;;;17.35;34.22;100325.40;27079;1218;3050488;-65
2021/09/06 10:42:16;;;;;;;1.90;0.60;;;;;;;17.28;34.07;100325.28;26904;1220;3069707;-64
2021/09/06 10:44:55;;;;;;;3.10;1.00;;;;;;;17.36;33.83;100328.73;26950;1219;3026957;-65
2021/09/06 10:47:24;;;;;;;2.40;0.90;;;;;;;17.77;33.33;100316.77;27062;1220;3054518;-65
2021/09/06 10:49:53;;;;;;;4.00;1.10;;;;;;;18.07;33.12;100320.84;27065;1220;3025932;-65
2021/09/06 10:52:24;;;;;;;1.30;0.80;;;;;;;18.21;32.30;100315.83;27018;1221;3048377;-63
2021/09/06 10:54:55;;;;;;;4.40;0.80;;;;;;;18.20;31.60;100312.42;26990;1220;3054164;-64
2021/09/06 10:57:24;;;;;;;2.40;0.80;;;;;;;18.42;30.66;100310.12;27018;1220;3026159;-63
2021/09/06 10:59:54;;;;;;;2.50;0.70;;;;;;;18.57;31.16;100307.84;26953;1220;3051168;-64
2021/09/06 11:02:24;;;;;;;1.60;0.70;;;;;;;18.77;30.75;100304.07;26980;1220;3026524;-66
2021/09/06 11:04:53;;;;;;;2.30;0.90;;;;;;;18.94;31.00;100307.23;27036;1220;3026124;-65
2021/09/06 11:07:35;;;;;;;4.10;1.00;;;;;;;18.82;31.45;100307.77;27012;1220;3051814;-64
2021/09/06 11:10:11;;;;;;;9.50;1.00;;;;;;;18.70;32.00;100304.52;26971;1219;3026343;-63
2021/09/06 11:13:11;;;;;;;2.30;0.80;;;;;;;18.76;32.20;100305.98;27010;1220;3066881;-64
2021/09/06 11:15:42;;;;;;;2.50;0.60;;;;;;;18.93;31.76;100303.88;26839;1231;3048783;-65
2021/09/06 11:18:13;;;;;;;3.00;0.80;;;;;;;18.94;31.13;100305.95;26889;1224;3026346;-62
2021/09/06 11:20:48;;;;;;;7.40;0.90;;;;;;;18.65;31.86;100308.07;26945;1231;3054334;-62
2021/09/06 11:23:17;;;;;;;5.10;1.20;;;;;;;18.13;31.96;100313.63;26940;1223;3025847;-65
2021/09/06 11:25:51;;;;;;;1.80;0.80;;;;;;;18.20;31.92;100305.98;26912;1226;3051151;-65
2021/09/06 11:28:20;;;;;;;3.30;1.50;;;;;;;18.26;31.48;100309.77;26904;1231;3026845;-63
2021/09/06 11:30:50;;;;;;;4.70;1.20;;;;;;;18.35;31.38;100305.17;26886;1228;3026940;-64
2021/09/06 11:33:19;;;;;;;6.70;1.10;;;;;;;18.40;31.05;100304.61;26906;1223;3025995;-65